This is the latest recevied weather packets stored in our database for station/object OH6HPS. If no packets are shown the sender has not sent any weather packets the latest 1 day(s).
| Time | Temp. | Humidity | Pressure | Rain* | Wind** | Luminosity | Snow |
|---|---|---|---|---|---|---|---|
| 1778067333 | 12.22° C | 27% | 1013 hPa | 0 mm | - | 160 W/m² | - |
| 1778066132 | 12.22° C | 30% | 1013 hPa | 0 mm | - | 153 W/m² | - |
| 1778063730 | 10.56° C | 37% | 1012.9 hPa | 0 mm | - | 754 W/m² | - |
| 1778063131 | 11.11° C | 36% | 1012.9 hPa | 0 mm | - | 92 W/m² | - |
| 1778062530 | 11.11° C | 36% | 1012.8 hPa | 0 mm | - | 800 W/m² | - |
| 1778061330 | 11.67° C | 36% | 1012.9 hPa | 0 mm | - | 144 W/m² | - |
| 1778060729 | 11.67° C | 35% | 1012.7 hPa | 0 mm | - | 823 W/m² | - |
| 1778059528 | 11.11° C | 39% | 1012.7 hPa | 0 mm | - | 132 W/m² | - |
| 1778058929 | 11.11° C | 38% | 1012.7 hPa | 0 mm | - | 616 W/m² | - |
| 1778057728 | 10° C | 40% | 1012.6 hPa | 0 mm | - | 892 W/m² | - |
| 1778055927 | 9.44° C | 40% | 1012.6 hPa | 0 mm | - | 151 W/m² | - |
| 1778055327 | 10.56° C | 40% | 1012.6 hPa | 0 mm | - | 132 W/m² | - |
| 1778054126 | 10° C | 43% | 1012.5 hPa | 0 mm | - | 160 W/m² | - |
| 1778053526 | 10.56° C | 41% | 1012.3 hPa | 0 mm | - | 716 W/m² | - |
| 1778052926 | 10.56° C | 43% | 1012.2 hPa | 0 mm | - | 686 W/m² | - |
| 1778052325 | 10° C | 46% | 1012.1 hPa | 0 mm | - | 644 W/m² | - |
| 1778051126 | 9.44° C | 48% | 1012 hPa | 0 mm | - | 528 W/m² | - |
| 1778050525 | 9.44° C | 52% | 1012 hPa | 0 mm | - | 501 W/m² | - |
| 1778048723 | 8.89° C | 55% | 1011.9 hPa | 0 mm | - | 441 W/m² | - |
| 1778048122 | 8.33° C | 60% | 1011.9 hPa | 0 mm | - | 419 W/m² | - |
| 1778046922 | 7.22° C | 67% | 1011.7 hPa | 0 mm | - | 362 W/m² | - |
| 1778043921 | 5.56° C | 75% | 1011.3 hPa | 0 mm | - | 225 W/m² | - |
| 1778042721 | 4.44° C | 80% | 1011.2 hPa | 0 mm | - | 222 W/m² | - |
| 1778042119 | 3.89° C | 84% | 1011.1 hPa | 0 mm | - | 202 W/m² | - |
| 1778041520 | 2.78° C | 87% | 1011 hPa | 0 mm | - | 181 W/m² | - |
* Rain latest hour (hover to see other rain measurements)
** Current wind speed in m/s (hover to see current wind gust speed)